sensor_id;sensor_type;location;lat;lon;timestamp;pressure;altitude;pressure_sealevel;temperature
61977;BMP280;45905;50.570;10.428;2024-02-15T00:00:37;98161.03;;;9.63
61977;BMP280;45905;50.570;10.428;2024-02-15T00:03:05;98155.22;;;9.63
61977;BMP280;45905;50.570;10.428;2024-02-15T00:05:34;98167.06;;;9.62
61977;BMP280;45905;50.570;10.428;2024-02-15T00:08:05;98167.34;;;9.59
61977;BMP280;45905;50.570;10.428;2024-02-15T00:10:33;98159.75;;;9.59
61977;BMP280;45905;50.570;10.428;2024-02-15T00:13:01;98161.34;;;9.60
61977;BMP280;45905;50.570;10.428;2024-02-15T00:15:29;98161.34;;;9.60
61977;BMP280;45905;50.570;10.428;2024-02-15T00:17:57;98160.41;;;9.61
61977;BMP280;45905;50.570;10.428;2024-02-15T00:20:25;98166.28;;;9.62
61977;BMP280;45905;50.570;10.428;2024-02-15T00:22:52;98168.00;;;9.61
61977;BMP280;45905;50.570;10.428;2024-02-15T00:25:20;98163.75;;;9.62
61977;BMP280;45905;50.570;10.428;2024-02-15T00:27:48;98173.88;;;9.62
61977;BMP280;45905;50.570;10.428;2024-02-15T00:30:15;98168.63;;;9.63
61977;BMP280;45905;50.570;10.428;2024-02-15T00:32:44;98163.44;;;9.65
61977;BMP280;45905;50.570;10.428;2024-02-15T00:35:14;98168.50;;;9.65
61977;BMP280;45905;50.570;10.428;2024-02-15T00:37:42;98174.34;;;9.65
61977;BMP280;45905;50.570;10.428;2024-02-15T00:40:10;98164.25;;;9.65
61977;BMP280;45905;50.570;10.428;2024-02-15T00:42:38;98156.78;;;9.64
61977;BMP280;45905;50.570;10.428;2024-02-15T00:45:06;98169.28;;;9.65
61977;BMP280;45905;50.570;10.428;2024-02-15T00:47:39;98165.16;;;9.64
61977;BMP280;45905;50.570;10.428;2024-02-15T00:50:10;98162.50;;;9.66
61977;BMP280;45905;50.570;10.428;2024-02-15T00:52:37;98159.97;;;9.66
61977;BMP280;45905;50.570;10.428;2024-02-15T00:55:05;98154.91;;;9.66
61977;BMP280;45905;50.570;10.428;2024-02-15T00:57:33;98149.84;;;9.66
61977;BMP280;45905;50.570;10.428;2024-02-15T01:00:01;98152.38;;;9.66
61977;BMP280;45905;50.570;10.428;2024-02-15T01:02:31;98154.13;;;9.65
61977;BMP280;45905;50.570;10.428;2024-02-15T01:04:58;98151.59;;;9.65
61977;BMP280;45905;50.570;10.428;2024-02-15T01:07:27;98163.44;;;9.65
61977;BMP280;45905;50.570;10.428;2024-02-15T01:09:55;98160.91;;;9.65
61977;BMP280;45905;50.570;10.428;2024-02-15T01:12:23;98163.44;;;9.65
61977;BMP280;45905;50.570;10.428;2024-02-15T01:14:52;98161.72;;;9.65
61977;BMP280;45905;50.570;10.428;2024-02-15T01:17:20;98154.13;;;9.65
61977;BMP280;45905;50.570;10.428;2024-02-15T01:19:47;98150.66;;;9.66
61977;BMP280;45905;50.570;10.428;2024-02-15T01:22:16;98149.84;;;9.66
61977;BMP280;45905;50.570;10.428;2024-02-15T01:24:45;98152.38;;;9.66
61977;BMP280;45905;50.570;10.428;2024-02-15T01:27:12;98143.19;;;9.65
61977;BMP280;45905;50.570;10.428;2024-02-15T01:29:40;98145.72;;;9.65
61977;BMP280;45905;50.570;10.428;2024-02-15T01:32:08;98143.19;;;9.65
61977;BMP280;45905;50.570;10.428;2024-02-15T01:34:35;98144.13;;;9.64
61977;BMP280;45905;50.570;10.428;2024-02-15T01:37:03;98144.13;;;9.64
61977;BMP280;45905;50.570;10.428;2024-02-15T01:39:30;98155.22;;;9.63
61977;BMP280;45905;50.570;10.428;2024-02-15T01:41:58;98150.16;;;9.63
61977;BMP280;45905;50.570;10.428;2024-02-15T01:44:26;98146.66;;;9.64
61977;BMP280;45905;50.570;10.428;2024-02-15T01:46:54;98154.25;;;9.64
61977;BMP280;45905;50.570;10.428;2024-02-15T01:49:24;98156.78;;;9.64
61977;BMP280;45905;50.570;10.428;2024-02-15T01:51:54;98163.44;;;9.65
61977;BMP280;45905;50.570;10.428;2024-02-15T01:54:25;98165.97;;;9.65
61977;BMP280;45905;50.570;10.428;2024-02-15T01:56:53;98153.31;;;9.65
61977;BMP280;45905;50.570;10.428;2024-02-15T01:59:23;98150.78;;;9.65
61977;BMP280;45905;50.570;10.428;2024-02-15T02:01:52;98155.06;;;9.64
61977;BMP280;45905;50.570;10.428;2024-02-15T02:04:19;98143.19;;;9.65
61977;BMP280;45905;50.570;10.428;2024-02-15T02:06:47;98142.41;;;9.64
61977;BMP280;45905;50.570;10.428;2024-02-15T02:09:15;98149.06;;;9.65
61977;BMP280;45905;50.570;10.428;2024-02-15T02:11:46;98130.69;;;9.63
61977;BMP280;45905;50.570;10.428;2024-02-15T02:14:15;98139.09;;;9.64
61977;BMP280;45905;50.570;10.428;2024-02-15T02:16:43;98141.63;;;9.64
61977;BMP280;45905;50.570;10.428;2024-02-15T02:19:11;98143.34;;;9.63
61977;BMP280;45905;50.570;10.428;2024-02-15T02:21:39;98138.16;;;9.65
61977;BMP280;45905;50.570;10.428;2024-02-15T02:24:14;98134.03;;;9.64
61977;BMP280;45905;50.570;10.428;2024-02-15T02:26:45;98140.69;;;9.65
61977;BMP280;45905;50.570;10.428;2024-02-15T02:29:15;98138.16;;;9.65
61977;BMP280;45905;50.570;10.428;2024-02-15T02:31:43;98132.16;;;9.66
61977;BMP280;45905;50.570;10.428;2024-02-15T02:34:11;98126.16;;;9.67
61977;BMP280;45905;50.570;10.428;2024-02-15T02:36:44;98128.56;;;9.68
61977;BMP280;45905;50.570;10.428;2024-02-15T02:39:11;98126.03;;;9.68
61977;BMP280;45905;50.570;10.428;2024-02-15T02:41:39;98126.97;;;9.67
61977;BMP280;45905;50.570;10.428;2024-02-15T02:44:07;98125.22;;;9.68
61977;BMP280;45905;50.570;10.428;2024-02-15T02:46:34;98114.16;;;9.69
61977;BMP280;45905;50.570;10.428;2024-02-15T02:49:02;98121.63;;;9.70
61977;BMP280;45905;50.570;10.428;2024-02-15T02:51:30;98124.16;;;9.70
61977;BMP280;45905;50.570;10.428;2024-02-15T02:53:57;98124.00;;;9.72
61977;BMP280;45905;50.570;10.428;2024-02-15T02:56:25;98129.06;;;9.72
61977;BMP280;45905;50.570;10.428;2024-02-15T02:58:53;98127.16;;;9.73
61977;BMP280;45905;50.570;10.428;2024-02-15T03:01:23;98128.75;;;9.74
61977;BMP280;45905;50.570;10.428;2024-02-15T03:03:55;98133.81;;;9.74
61977;BMP280;45905;50.570;10.428;2024-02-15T03:06:23;98138.88;;;9.74
61977;BMP280;45905;50.570;10.428;2024-02-15T03:08:52;98141.41;;;9.74
61977;BMP280;45905;50.570;10.428;2024-02-15T03:11:22;98132.22;;;9.73
61977;BMP280;45905;50.570;10.428;2024-02-15T03:13:50;98124.50;;;9.75
61977;BMP280;45905;50.570;10.428;2024-02-15T03:16:22;98116.91;;;9.75
61977;BMP280;45905;50.570;10.428;2024-02-15T03:18:49;98121.03;;;9.76
61977;BMP280;45905;50.570;10.428;2024-02-15T03:21:18;98130.34;;;9.75
61977;BMP280;45905;50.570;10.428;2024-02-15T03:23:47;98129.56;;;9.75
61977;BMP280;45905;50.570;10.428;2024-02-15T03:26:15;98126.22;;;9.74
61977;BMP280;45905;50.570;10.428;2024-02-15T03:28:43;98131.44;;;9.73
61977;BMP280;45905;50.570;10.428;2024-02-15T03:31:12;98112.78;;;9.74
61977;BMP280;45905;50.570;10.428;2024-02-15T03:33:40;98117.84;;;9.74
61977;BMP280;45905;50.570;10.428;2024-02-15T03:36:08;98115.19;;;9.75
61977;BMP280;45905;50.570;10.428;2024-02-15T03:38:38;98121.81;;;9.76
61977;BMP280;45905;50.570;10.428;2024-02-15T03:41:09;98124.34;;;9.76
61977;BMP280;45905;50.570;10.428;2024-02-15T03:43:36;98128.47;;;9.77
61977;BMP280;45905;50.570;10.428;2024-02-15T03:46:04;98124.34;;;9.76
61977;BMP280;45905;50.570;10.428;2024-02-15T03:48:31;98126.88;;;9.76
61977;BMP280;45905;50.570;10.428;2024-02-15T03:51:00;98128.47;;;9.77
61977;BMP280;45905;50.570;10.428;2024-02-15T03:53:29;98126.75;;;9.78
61977;BMP280;45905;50.570;10.428;2024-02-15T03:55:58;98127.56;;;9.78
61977;BMP280;45905;50.570;10.428;2024-02-15T03:58:26;98133.28;;;9.80
61977;BMP280;45905;50.570;10.428;2024-02-15T04:00:53;98134.84;;;9.81
61977;BMP280;45905;50.570;10.428;2024-02-15T04:03:23;98127.13;;;9.83
61977;BMP280;45905;50.570;10.428;2024-02-15T04:05:50;98136.16;;;9.85
61977;BMP280;45905;50.570;10.428;2024-02-15T04:08:18;98135.38;;;9.85
61977;BMP280;45905;50.570;10.428;2024-02-15T04:10:46;98133.63;;;9.85
61977;BMP280;45905;50.570;10.428;2024-02-15T04:13:19;98134.28;;;9.87
61977;BMP280;45905;50.570;10.428;2024-02-15T04:15:46;98124.97;;;9.88
61977;BMP280;45905;50.570;10.428;2024-02-15T04:18:16;98132.41;;;9.89
61977;BMP280;45905;50.570;10.428;2024-02-15T04:20:44;98132.41;;;9.89
61977;BMP280;45905;50.570;10.428;2024-02-15T04:23:14;98135.44;;;9.92
61977;BMP280;45905;50.570;10.428;2024-02-15T04:25:41;98140.34;;;9.94
61977;BMP280;45905;50.570;10.428;2024-02-15T04:28:11;98148.75;;;9.94
61977;BMP280;45905;50.570;10.428;2024-02-15T04:30:39;98141.94;;;9.95
61977;BMP280;45905;50.570;10.428;2024-02-15T04:33:07;98144.47;;;9.95
61977;BMP280;45905;50.570;10.428;2024-02-15T04:35:36;98142.88;;;9.94
61977;BMP280;45905;50.570;10.428;2024-02-15T04:38:03;98146.06;;;9.96
61977;BMP280;45905;50.570;10.428;2024-02-15T04:40:31;98147.00;;;9.95
61977;BMP280;45905;50.570;10.428;2024-02-15T04:42:59;98137.69;;;9.95
61977;BMP280;45905;50.570;10.428;2024-02-15T04:45:27;98142.75;;;9.95
61977;BMP280;45905;50.570;10.428;2024-02-15T04:47:55;98141.94;;;9.95
61977;BMP280;45905;50.570;10.428;2024-02-15T04:50:24;98141.94;;;9.95
61977;BMP280;45905;50.570;10.428;2024-02-15T04:52:53;98137.69;;;9.95
61977;BMP280;45905;50.570;10.428;2024-02-15T04:55:21;98143.53;;;9.96
61977;BMP280;45905;50.570;10.428;2024-02-15T04:57:50;98148.59;;;9.96
61977;BMP280;45905;50.570;10.428;2024-02-15T05:00:23;98136.75;;;9.96
61977;BMP280;45905;50.570;10.428;2024-02-15T05:02:53;98144.19;;;9.98
61977;BMP280;45905;50.570;10.428;2024-02-15T05:05:21;98145.13;;;9.97
61977;BMP280;45905;50.570;10.428;2024-02-15T05:07:50;98136.59;;;9.98
61977;BMP280;45905;50.570;10.428;2024-02-15T05:10:18;98141.66;;;9.98
61977;BMP280;45905;50.570;10.428;2024-02-15T05:12:46;98140.06;;;9.97
61977;BMP280;45905;50.570;10.428;2024-02-15T05:15:16;98140.06;;;9.97
61977;BMP280;45905;50.570;10.428;2024-02-15T05:17:45;98141.66;;;9.98
61977;BMP280;45905;50.570;10.428;2024-02-15T05:20:15;98135.63;;;9.99
61977;BMP280;45905;50.570;10.428;2024-02-15T05:22:43;98137.22;;;10.00
61977;BMP280;45905;50.570;10.428;2024-02-15T05:25:19;98136.28;;;10.01
61977;BMP280;45905;50.570;10.428;2024-02-15T05:27:53;98144.81;;;10.00
61977;BMP280;45905;50.570;10.428;2024-02-15T05:30:22;98136.44;;;9.99
61977;BMP280;45905;50.570;10.428;2024-02-15T05:32:51;98141.34;;;10.01
61977;BMP280;45905;50.570;10.428;2024-02-15T05:35:22;98140.56;;;10.00
61977;BMP280;45905;50.570;10.428;2024-02-15T05:37:50;98135.50;;;10.00
61977;BMP280;45905;50.570;10.428;2024-02-15T05:40:19;98138.81;;;10.01
61977;BMP280;45905;50.570;10.428;2024-02-15T05:42:47;98134.69;;;10.00
61977;BMP280;45905;50.570;10.428;2024-02-15T05:45:28;98134.69;;;10.00
61977;BMP280;45905;50.570;10.428;2024-02-15T05:48:04;98144.81;;;10.00
61977;BMP280;45905;50.570;10.428;2024-02-15T05:50:35;98138.16;;;9.99
61977;BMP280;45905;50.570;10.428;2024-02-15T05:53:03;98141.50;;;9.99
61977;BMP280;45905;50.570;10.428;2024-02-15T05:55:31;98133.91;;;9.99
61977;BMP280;45905;50.570;10.428;2024-02-15T05:58:02;98143.22;;;9.99
61977;BMP280;45905;50.570;10.428;2024-02-15T06:00:30;98138.16;;;9.99
61977;BMP280;45905;50.570;10.428;2024-02-15T06:02:58;98137.22;;;10.00
61977;BMP280;45905;50.570;10.428;2024-02-15T06:05:29;98140.41;;;10.02
61977;BMP280;45905;50.570;10.428;2024-02-15T06:07:57;98138.81;;;10.01
61977;BMP280;45905;50.570;10.428;2024-02-15T06:10:25;98138.81;;;10.01
61977;BMP280;45905;50.570;10.428;2024-02-15T06:12:53;98140.41;;;10.02
61977;BMP280;45905;50.570;10.428;2024-02-15T06:15:20;98137.88;;;10.02
61977;BMP280;45905;50.570;10.428;2024-02-15T06:17:48;98139.47;;;10.03
61977;BMP280;45905;50.570;10.428;2024-02-15T06:20:16;98148.00;;;10.02
61977;BMP280;45905;50.570;10.428;2024-02-15T06:22:48;98143.75;;;10.02
61977;BMP280;45905;50.570;10.428;2024-02-15T06:25:16;98138.69;;;10.02
61977;BMP280;45905;50.570;10.428;2024-02-15T06:27:52;98136.94;;;10.03
61977;BMP280;45905;50.570;10.428;2024-02-15T06:30:27;98137.88;;;10.02
61977;BMP280;45905;50.570;10.428;2024-02-15T06:33:13;98149.59;;;10.03
61977;BMP280;45905;50.570;10.428;2024-02-15T06:36:08;98153.06;;;10.02
61977;BMP280;45905;50.570;10.428;2024-02-15T06:39:08;98147.06;;;10.03
61977;BMP280;45905;50.570;10.428;2024-02-15T06:41:54;98142.81;;;10.03
61977;BMP280;45905;50.570;10.428;2024-02-15T06:44:23;98142.66;;;10.05
61977;BMP280;45905;50.570;10.428;2024-02-15T06:46:51;98138.53;;;10.04
61977;BMP280;45905;50.570;10.428;2024-02-15T06:49:18;98144.25;;;10.06
61977;BMP280;45905;50.570;10.428;2024-02-15T06:51:49;98142.53;;;10.06
61977;BMP280;45905;50.570;10.428;2024-02-15T06:54:17;98150.88;;;10.07
61977;BMP280;45905;50.570;10.428;2024-02-15T06:56:46;98148.66;;;10.04
61977;BMP280;45905;50.570;10.428;2024-02-15T06:59:14;98157.53;;;10.08
61977;BMP280;45905;50.570;10.428;2024-02-15T07:01:42;98159.28;;;10.07
61977;BMP280;45905;50.570;10.428;2024-02-15T07:04:10;98163.53;;;10.07
61977;BMP280;45905;50.570;10.428;2024-02-15T07:06:38;98164.19;;;10.09
61977;BMP280;45905;50.570;10.428;2024-02-15T07:09:06;98154.38;;;10.06
61977;BMP280;45905;50.570;10.428;2024-02-15T07:11:34;98155.66;;;10.10
61977;BMP280;45905;50.570;10.428;2024-02-15T07:14:02;98161.53;;;10.10
61977;BMP280;45905;50.570;10.428;2024-02-15T07:16:32;98162.31;;;10.10
61977;BMP280;45905;50.570;10.428;2024-02-15T07:19:01;98165.50;;;10.12
61977;BMP280;45905;50.570;10.428;2024-02-15T07:21:31;98163.63;;;10.14
61977;BMP280;45905;50.570;10.428;2024-02-15T07:23:59;98171.06;;;10.16
61977;BMP280;45905;50.570;10.428;2024-02-15T07:26:27;98167.59;;;10.17
61977;BMP280;45905;50.570;10.428;2024-02-15T07:28:55;98174.25;;;10.18
61977;BMP280;45905;50.570;10.428;2024-02-15T07:31:27;98164.91;;;10.18
61977;BMP280;45905;50.570;10.428;2024-02-15T07:33:55;98169.03;;;10.19
61977;BMP280;45905;50.570;10.428;2024-02-15T07:36:24;98163.97;;;10.19
61977;BMP280;45905;50.570;10.428;2024-02-15T07:38:54;98168.75;;;10.22
61977;BMP280;45905;50.570;10.428;2024-02-15T07:41:25;98170.34;;;10.23
61977;BMP280;45905;50.570;10.428;2024-02-15T07:43:52;98171.16;;;10.24
61977;BMP280;45905;50.570;10.428;2024-02-15T07:46:22;98171.91;;;10.24
61977;BMP280;45905;50.570;10.428;2024-02-15T07:48:51;98180.16;;;10.26
61977;BMP280;45905;50.570;10.428;2024-02-15T07:51:21;98165.63;;;10.28
61977;BMP280;45905;50.570;10.428;2024-02-15T07:53:50;98168.81;;;10.30
61977;BMP280;45905;50.570;10.428;2024-02-15T07:56:18;98172.00;;;10.32
61977;BMP280;45905;50.570;10.428;2024-02-15T07:58:49;98173.56;;;10.33
61977;BMP280;45905;50.570;10.428;2024-02-15T08:01:21;98179.16;;;10.36
61977;BMP280;45905;50.570;10.428;2024-02-15T08:03:49;98161.28;;;10.38
61977;BMP280;45905;50.570;10.428;2024-02-15T08:06:17;98159.41;;;10.40
61977;BMP280;45905;50.570;10.428;2024-02-15T08:08:47;98157.34;;;10.43
61977;BMP280;45905;50.570;10.428;2024-02-15T08:11:15;98160.38;;;10.47
61977;BMP280;45905;50.570;10.428;2024-02-15T08:13:50;98156.91;;;10.48
61977;BMP280;45905;50.570;10.428;2024-02-15T08:16:22;98160.09;;;10.49
61977;BMP280;45905;50.570;10.428;2024-02-15T08:18:51;98159.00;;;10.52
61977;BMP280;45905;50.570;10.428;2024-02-15T08:21:27;98167.25;;;10.54
61977;BMP280;45905;50.570;10.428;2024-02-15T08:24:00;98166.16;;;10.56
61977;BMP280;45905;50.570;10.428;2024-02-15T08:26:35;98158.41;;;10.58
61977;BMP280;45905;50.570;10.428;2024-02-15T08:29:05;98158.25;;;10.59
61977;BMP280;45905;50.570;10.428;2024-02-15T08:31:41;98156.34;;;10.61
61977;BMP280;45905;50.570;10.428;2024-02-15T08:34:09;98151.16;;;10.63
61977;BMP280;45905;50.570;10.428;2024-02-15T08:36:42;98145.00;;;10.65
61977;BMP280;45905;50.570;10.428;2024-02-15T08:39:09;98152.28;;;10.68
61977;BMP280;45905;50.570;10.428;2024-02-15T08:41:39;98153.72;;;10.70
61977;BMP280;45905;50.570;10.428;2024-02-15T08:44:07;98152.63;;;10.73
61977;BMP280;45905;50.570;10.428;2024-02-15T08:46:39;98148.84;;;10.77
61977;BMP280;45905;50.570;10.428;2024-02-15T08:49:07;98158.69;;;10.80
61977;BMP280;45905;50.570;10.428;2024-02-15T08:51:34;98153.47;;;10.81
61977;BMP280;45905;50.570;10.428;2024-02-15T08:54:03;98150.66;;;10.84
61977;BMP280;45905;50.570;10.428;2024-02-15T08:56:31;98151.91;;;10.88
61977;BMP280;45905;50.570;10.428;2024-02-15T08:59:01;98158.16;;;10.93
61977;BMP280;45905;50.570;10.428;2024-02-15T09:01:31;98144.84;;;10.99
61977;BMP280;45905;50.570;10.428;2024-02-15T09:04:00;98149.31;;;11.05
61977;BMP280;45905;50.570;10.428;2024-02-15T09:06:28;98150.91;;;11.06
61977;BMP280;45905;50.570;10.428;2024-02-15T09:08:56;98155.03;;;11.07
61977;BMP280;45905;50.570;10.428;2024-02-15T09:11:31;98169.78;;;11.11
61977;BMP280;45905;50.570;10.428;2024-02-15T09:13:58;98165.19;;;11.15
61977;BMP280;45905;50.570;10.428;2024-02-15T09:16:51;98162.00;;;11.13
61977;BMP280;45905;50.570;10.428;2024-02-15T09:19:19;98168.19;;;11.10
61977;BMP280;45905;50.570;10.428;2024-02-15T09:21:46;98167.41;;;11.10
61977;BMP280;45905;50.570;10.428;2024-02-15T09:24:14;98164.88;;;11.10
61977;BMP280;45905;50.570;10.428;2024-02-15T09:26:43;98175.00;;;11.10
61977;BMP280;45905;50.570;10.428;2024-02-15T09:29:12;98182.91;;;11.07
61977;BMP280;45905;50.570;10.428;2024-02-15T09:31:39;98166.09;;;11.06
61977;BMP280;45905;50.570;10.428;2024-02-15T09:34:08;98167.69;;;11.07
61977;BMP280;45905;50.570;10.428;2024-02-15T09:36:36;98179.44;;;11.08
61977;BMP280;45905;50.570;10.428;2024-02-15T09:39:06;98175.97;;;11.09
61977;BMP280;45905;50.570;10.428;2024-02-15T09:41:34;98164.88;;;11.10
61977;BMP280;45905;50.570;10.428;2024-02-15T09:44:02;98168.03;;;11.12
61977;BMP280;45905;50.570;10.428;2024-02-15T09:46:35;98156.94;;;11.13
61977;BMP280;45905;50.570;10.428;2024-02-15T09:49:04;98157.75;;;11.13
61977;BMP280;45905;50.570;10.428;2024-02-15T09:51:33;98155.69;;;11.17
61977;BMP280;45905;50.570;10.428;2024-02-15T09:54:01;98154.63;;;11.19
61977;BMP280;45905;50.570;10.428;2024-02-15T09:56:31;98161.09;;;11.22
61977;BMP280;45905;50.570;10.428;2024-02-15T09:59:00;98164.28;;;11.24
61977;BMP280;45905;50.570;10.428;2024-02-15T10:01:32;98164.13;;;11.25
61977;BMP280;45905;50.570;10.428;2024-02-15T10:04:04;98159.72;;;11.27
61977;BMP280;45905;50.570;10.428;2024-02-15T10:06:34;98168.63;;;11.31
61977;BMP280;45905;50.570;10.428;2024-02-15T10:09:28;98159.91;;;11.33
61977;BMP280;45905;50.570;10.428;2024-02-15T10:11:57;98158.03;;;11.35
61977;BMP280;45905;50.570;10.428;2024-02-15T10:14:27;98157.88;;;11.37
61977;BMP280;45905;50.570;10.428;2024-02-15T10:16:54;98162.47;;;11.41
61977;BMP280;45905;50.570;10.428;2024-02-15T10:19:23;98160.44;;;11.44
61977;BMP280;45905;50.570;10.428;2024-02-15T10:21:52;98153.63;;;11.45
61977;BMP280;45905;50.570;10.428;2024-02-15T10:24:24;98153.28;;;11.48
61977;BMP280;45905;50.570;10.428;2024-02-15T10:26:59;98152.34;;;11.49
61977;BMP280;45905;50.570;10.428;2024-02-15T10:29:28;98155.53;;;11.51
61977;BMP280;45905;50.570;10.428;2024-02-15T10:31:59;98158.88;;;11.51
61977;BMP280;45905;50.570;10.428;2024-02-15T10:34:28;98158.72;;;11.53
61977;BMP280;45905;50.570;10.428;2024-02-15T10:37:22;98150.78;;;11.56
61977;BMP280;45905;50.570;10.428;2024-02-15T10:40:05;98146.19;;;11.59
61977;BMP280;45905;50.570;10.428;2024-02-15T10:42:37;98145.09;;;11.62
61977;BMP280;45905;50.570;10.428;2024-02-15T10:45:06;98131.47;;;11.63
61977;BMP280;45905;50.570;10.428;2024-02-15T10:47:40;98130.34;;;11.65
61977;BMP280;45905;50.570;10.428;2024-02-15T10:50:10;98133.38;;;11.68
61977;BMP280;45905;50.570;10.428;2024-02-15T10:52:55;98137.19;;;11.72
61977;BMP280;45905;50.570;10.428;2024-02-15T10:55:38;98132.13;;;11.72
61977;BMP280;45905;50.570;10.428;2024-02-15T10:58:16;98125.13;;;11.74
61977;BMP280;45905;50.570;10.428;2024-02-15T11:00:47;98123.88;;;11.78
61977;BMP280;45905;50.570;10.428;2024-02-15T11:03:35;98121.03;;;11.81
61977;BMP280;45905;50.570;10.428;2024-02-15T11:06:09;98112.63;;;11.81
61977;BMP280;45905;50.570;10.428;2024-02-15T11:08:39;98109.13;;;11.82
61977;BMP280;45905;50.570;10.428;2024-02-15T11:11:06;98108.66;;;11.86
61977;BMP280;45905;50.570;10.428;2024-02-15T11:13:35;98096.44;;;11.89
61977;BMP280;45905;50.570;10.428;2024-02-15T11:16:02;98098.34;;;11.95
61977;BMP280;45905;50.570;10.428;2024-02-15T11:18:47;98090.72;;;12.03
61977;BMP280;45905;50.570;10.428;2024-02-15T11:21:17;98093.59;;;12.08
61977;BMP280;45905;50.570;10.428;2024-02-15T11:23:46;98086.41;;;12.11
61977;BMP280;45905;50.570;10.428;2024-02-15T11:26:45;98083.22;;;12.17
61977;BMP280;45905;50.570;10.428;2024-02-15T11:35:20;98076.22;;;12.35
61977;BMP280;45905;50.570;10.428;2024-02-15T11:37:54;98075.25;;;12.43
61977;BMP280;45905;50.570;10.428;2024-02-15T11:43:46;98061.09;;;12.57
61977;BMP280;45905;50.570;10.428;2024-02-15T11:46:20;98065.38;;;12.64
61977;BMP280;45905;50.570;10.428;2024-02-15T11:48:48;98060.94;;;12.66
61977;BMP280;45905;50.570;10.428;2024-02-15T11:51:34;98061.22;;;12.71
61977;BMP280;45905;50.570;10.428;2024-02-15T11:54:12;98054.88;;;12.75
61977;BMP280;45905;50.570;10.428;2024-02-15T11:56:51;98049.47;;;12.78
61977;BMP280;45905;50.570;10.428;2024-02-15T11:59:22;98056.75;;;12.80
61977;BMP280;45905;50.570;10.428;2024-02-15T12:02:10;98048.78;;;12.83
61977;BMP280;45905;50.570;10.428;2024-02-15T12:04:56;98044.34;;;12.85
61977;BMP280;45905;50.570;10.428;2024-02-15T12:07:43;98047.34;;;12.89
61977;BMP280;45905;50.570;10.428;2024-02-15T12:10:30;98039.22;;;12.93
61977;BMP280;45905;50.570;10.428;2024-02-15T12:13:19;98040.63;;;12.96
61977;BMP280;45905;50.570;10.428;2024-02-15T12:16:05;98036.00;;;12.99
61977;BMP280;45905;50.570;10.428;2024-02-15T12:18:52;98036.53;;;12.95
61977;BMP280;45905;50.570;10.428;2024-02-15T12:21:25;98026.78;;;12.98
61977;BMP280;45905;50.570;10.428;2024-02-15T12:23:55;98024.09;;;12.99
61977;BMP280;45905;50.570;10.428;2024-02-15T12:26:23;98033.13;;;13.02
61977;BMP280;45905;50.570;10.428;2024-02-15T12:28:54;98032.97;;;13.03
61977;BMP280;45905;50.570;10.428;2024-02-15T12:31:24;98032.78;;;13.05
61977;BMP280;45905;50.570;10.428;2024-02-15T12:34:04;98027.53;;;13.06
61977;BMP280;45905;50.570;10.428;2024-02-15T12:36:36;98020.38;;;13.10
61977;BMP280;45905;50.570;10.428;2024-02-15T12:39:07;98022.63;;;13.05
61977;BMP280;45905;50.570;10.428;2024-02-15T12:41:39;98024.38;;;13.04
61977;BMP280;45905;50.570;10.428;2024-02-15T12:44:08;98019.13;;;13.06
61977;BMP280;45905;50.570;10.428;2024-02-15T12:46:38;98017.53;;;13.05
61977;BMP280;45905;50.570;10.428;2024-02-15T12:49:30;98019.13;;;13.06
61977;BMP280;45905;50.570;10.428;2024-02-15T12:52:37;98016.88;;;13.11
61977;BMP280;45905;50.570;10.428;2024-02-15T12:57:54;98011.91;;;13.17
61977;BMP280;45905;50.570;10.428;2024-02-15T13:00:27;98017.47;;;13.20
61977;BMP280;45905;50.570;10.428;2024-02-15T13:03:03;98008.69;;;13.23
61977;BMP280;45905;50.570;10.428;2024-02-15T13:05:32;98016.09;;;13.32
61977;BMP280;45905;50.570;10.428;2024-02-15T13:08:00;98020.53;;;13.38
61977;BMP280;45905;50.570;10.428;2024-02-15T13:10:30;98015.53;;;13.44
61977;BMP280;45905;50.570;10.428;2024-02-15T13:12:59;97998.47;;;13.53
61977;BMP280;45905;50.570;10.428;2024-02-15T13:15:27;98008.41;;;13.62
61977;BMP280;45905;50.570;10.428;2024-02-15T13:17:55;98008.50;;;13.68
61977;BMP280;45905;50.570;10.428;2024-02-15T13:20:23;98006.84;;;13.75
61977;BMP280;45905;50.570;10.428;2024-02-15T13:23:10;98004.44;;;13.81
61977;BMP280;45905;50.570;10.428;2024-02-15T13:25:53;98008.69;;;13.89
61977;BMP280;45905;50.570;10.428;2024-02-15T13:28:24;98003.84;;;13.93
61977;BMP280;45905;50.570;10.428;2024-02-15T13:30:52;97994.03;;;13.91
61977;BMP280;45905;50.570;10.428;2024-02-15T13:33:23;97998.34;;;13.90
61977;BMP280;45905;50.570;10.428;2024-02-15T13:35:54;97987.63;;;13.94
61977;BMP280;45905;50.570;10.428;2024-02-15T13:38:22;97985.34;;;13.99
61977;BMP280;45905;50.570;10.428;2024-02-15T13:40:51;97986.22;;;14.06
61977;BMP280;45905;50.570;10.428;2024-02-15T13:43:23;97984.91;;;14.10
61977;BMP280;45905;50.570;10.428;2024-02-15T13:45:51;97982.00;;;14.13
61977;BMP280;45905;50.570;10.428;2024-02-15T13:48:20;97987.72;;;14.15
61977;BMP280;45905;50.570;10.428;2024-02-15T13:50:50;97978.41;;;14.22
61977;BMP280;45905;50.570;10.428;2024-02-15T13:53:19;97979.66;;;14.26
61977;BMP280;45905;50.570;10.428;2024-02-15T13:55:49;97972.34;;;14.23
61977;BMP280;45905;50.570;10.428;2024-02-15T13:58:19;97973.78;;;14.25
61977;BMP280;45905;50.570;10.428;2024-02-15T14:00:48;97974.97;;;14.29
61977;BMP280;45905;50.570;10.428;2024-02-15T14:03:16;97968.94;;;14.30
61977;BMP280;45905;50.570;10.428;2024-02-15T14:05:46;97966.19;;;14.31
61977;BMP280;45905;50.570;10.428;2024-02-15T14:08:15;97960.16;;;14.32
61977;BMP280;45905;50.570;10.428;2024-02-15T14:10:43;97956.00;;;14.31
61977;BMP280;45905;50.570;10.428;2024-02-15T14:13:11;97949.34;;;14.31
61977;BMP280;45905;50.570;10.428;2024-02-15T14:15:40;97951.81;;;14.24
61977;BMP280;45905;50.570;10.428;2024-02-15T14:18:12;97961.63;;;14.27
61977;BMP280;45905;50.570;10.428;2024-02-15T14:20:47;97955.75;;;14.27
61977;BMP280;45905;50.570;10.428;2024-02-15T14:23:16;97950.22;;;14.23
61977;BMP280;45905;50.570;10.428;2024-02-15T14:25:44;97947.06;;;14.21
61977;BMP280;45905;50.570;10.428;2024-02-15T14:28:13;97948.97;;;14.19
61977;BMP280;45905;50.570;10.428;2024-02-15T14:30:43;97946.19;;;14.14
61977;BMP280;45905;50.570;10.428;2024-02-15T14:33:29;97954.00;;;14.13